sensor_id;sensor_type;location;lat;lon;timestamp;P1;durP1;ratioP1;P2;durP2;ratioP2
69161;SDS011;56269;51.738;21.652;2024-02-28T00:00:30;25.75;;;11.13;;
69161;SDS011;56269;51.738;21.652;2024-02-28T00:03:16;27.80;;;10.63;;
69161;SDS011;56269;51.738;21.652;2024-02-28T00:05:42;22.87;;;9.47;;
69161;SDS011;56269;51.738;21.652;2024-02-28T00:08:08;25.95;;;9.80;;
69161;SDS011;56269;51.738;21.652;2024-02-28T00:10:35;26.35;;;10.73;;
69161;SDS011;56269;51.738;21.652;2024-02-28T00:13:00;26.75;;;10.18;;
69161;SDS011;56269;51.738;21.652;2024-02-28T00:15:27;25.55;;;9.98;;
69161;SDS011;56269;51.738;21.652;2024-02-28T00:17:53;22.90;;;9.43;;
69161;SDS011;56269;51.738;21.652;2024-02-28T00:20:21;23.25;;;9.63;;
69161;SDS011;56269;51.738;21.652;2024-02-28T00:22:47;23.75;;;9.95;;
69161;SDS011;56269;51.738;21.652;2024-02-28T00:25:13;24.52;;;9.00;;
69161;SDS011;56269;51.738;21.652;2024-02-28T00:27:41;23.65;;;10.65;;
69161;SDS011;56269;51.738;21.652;2024-02-28T00:30:07;23.53;;;9.53;;
69161;SDS011;56269;51.738;21.652;2024-02-28T00:32:33;25.00;;;9.82;;
69161;SDS011;56269;51.738;21.652;2024-02-28T00:35:00;23.98;;;9.60;;
69161;SDS011;56269;51.738;21.652;2024-02-28T00:37:26;20.20;;;8.90;;
69161;SDS011;56269;51.738;21.652;2024-02-28T00:39:52;20.83;;;8.73;;
69161;SDS011;56269;51.738;21.652;2024-02-28T00:42:18;20.55;;;8.60;;
69161;SDS011;56269;51.738;21.652;2024-02-28T00:44:45;22.38;;;8.70;;
69161;SDS011;56269;51.738;21.652;2024-02-28T00:47:11;20.50;;;8.23;;
69161;SDS011;56269;51.738;21.652;2024-02-28T00:49:37;17.73;;;8.13;;
69161;SDS011;56269;51.738;21.652;2024-02-28T00:52:03;17.40;;;8.27;;
69161;SDS011;56269;51.738;21.652;2024-02-28T00:54:30;20.45;;;8.48;;
69161;SDS011;56269;51.738;21.652;2024-02-28T00:56:56;20.15;;;8.52;;
69161;SDS011;56269;51.738;21.652;2024-02-28T00:59:22;20.92;;;8.57;;
69161;SDS011;56269;51.738;21.652;2024-02-28T01:01:48;18.97;;;8.13;;
69161;SDS011;56269;51.738;21.652;2024-02-28T01:04:15;18.40;;;7.78;;
69161;SDS011;56269;51.738;21.652;2024-02-28T01:06:41;20.55;;;8.63;;
69161;SDS011;56269;51.738;21.652;2024-02-28T01:09:07;21.92;;;7.88;;
69161;SDS011;56269;51.738;21.652;2024-02-28T01:11:33;19.50;;;8.48;;
69161;SDS011;56269;51.738;21.652;2024-02-28T01:13:59;16.67;;;7.30;;
69161;SDS011;56269;51.738;21.652;2024-02-28T01:16:25;16.58;;;7.72;;
69161;SDS011;56269;51.738;21.652;2024-02-28T01:18:52;18.35;;;8.00;;
69161;SDS011;56269;51.738;21.652;2024-02-28T01:21:18;18.77;;;7.72;;
69161;SDS011;56269;51.738;21.652;2024-02-28T01:23:45;17.63;;;7.10;;
69161;SDS011;56269;51.738;21.652;2024-02-28T01:26:11;19.03;;;8.20;;
69161;SDS011;56269;51.738;21.652;2024-02-28T01:28:37;17.70;;;7.80;;
69161;SDS011;56269;51.738;21.652;2024-02-28T01:31:03;17.35;;;7.72;;
69161;SDS011;56269;51.738;21.652;2024-02-28T01:33:31;18.63;;;7.40;;
69161;SDS011;56269;51.738;21.652;2024-02-28T01:35:57;19.47;;;7.77;;
69161;SDS011;56269;51.738;21.652;2024-02-28T01:38:24;20.42;;;8.15;;
69161;SDS011;56269;51.738;21.652;2024-02-28T01:40:52;18.25;;;7.93;;
69161;SDS011;56269;51.738;21.652;2024-02-28T01:43:19;18.95;;;7.55;;
69161;SDS011;56269;51.738;21.652;2024-02-28T01:45:45;22.25;;;7.90;;
69161;SDS011;56269;51.738;21.652;2024-02-28T01:48:11;16.43;;;6.87;;
69161;SDS011;56269;51.738;21.652;2024-02-28T01:50:38;19.27;;;7.97;;
69161;SDS011;56269;51.738;21.652;2024-02-28T01:53:08;17.10;;;8.02;;
69161;SDS011;56269;51.738;21.652;2024-02-28T01:55:36;19.35;;;7.97;;
69161;SDS011;56269;51.738;21.652;2024-02-28T01:58:04;18.10;;;7.88;;
69161;SDS011;56269;51.738;21.652;2024-02-28T02:00:34;16.97;;;7.60;;
69161;SDS011;56269;51.738;21.652;2024-02-28T02:03:01;18.20;;;7.97;;
69161;SDS011;56269;51.738;21.652;2024-02-28T02:05:27;20.75;;;8.20;;
69161;SDS011;56269;51.738;21.652;2024-02-28T02:07:54;17.85;;;7.82;;
69161;SDS011;56269;51.738;21.652;2024-02-28T02:10:22;18.92;;;7.93;;
69161;SDS011;56269;51.738;21.652;2024-02-28T02:12:49;22.87;;;9.10;;
69161;SDS011;56269;51.738;21.652;2024-02-28T02:15:15;20.02;;;8.32;;
69161;SDS011;56269;51.738;21.652;2024-02-28T02:17:41;19.00;;;8.02;;
69161;SDS011;56269;51.738;21.652;2024-02-28T02:20:07;19.05;;;8.70;;
69161;SDS011;56269;51.738;21.652;2024-02-28T02:22:37;19.67;;;7.70;;
69161;SDS011;56269;51.738;21.652;2024-02-28T02:25:05;21.23;;;7.82;;
69161;SDS011;56269;51.738;21.652;2024-02-28T02:27:32;19.42;;;8.07;;
69161;SDS011;56269;51.738;21.652;2024-02-28T02:29:58;16.73;;;7.80;;
69161;SDS011;56269;51.738;21.652;2024-02-28T02:32:24;17.95;;;7.57;;
69161;SDS011;56269;51.738;21.652;2024-02-28T02:34:50;17.43;;;7.83;;
69161;SDS011;56269;51.738;21.652;2024-02-28T02:37:16;17.88;;;7.15;;
69161;SDS011;56269;51.738;21.652;2024-02-28T02:39:42;20.13;;;7.82;;
69161;SDS011;56269;51.738;21.652;2024-02-28T02:42:09;17.35;;;6.93;;
69161;SDS011;56269;51.738;21.652;2024-02-28T02:44:35;17.50;;;7.20;;
69161;SDS011;56269;51.738;21.652;2024-02-28T02:47:01;17.05;;;7.88;;
69161;SDS011;56269;51.738;21.652;2024-02-28T02:49:27;19.25;;;7.97;;
69161;SDS011;56269;51.738;21.652;2024-02-28T02:51:53;17.83;;;7.38;;
69161;SDS011;56269;51.738;21.652;2024-02-28T02:54:19;17.27;;;7.47;;
69161;SDS011;56269;51.738;21.652;2024-02-28T02:56:45;17.05;;;7.53;;
69161;SDS011;56269;51.738;21.652;2024-02-28T02:59:11;17.83;;;8.00;;
69161;SDS011;56269;51.738;21.652;2024-02-28T03:01:40;18.48;;;7.78;;
69161;SDS011;56269;51.738;21.652;2024-02-28T03:04:06;19.03;;;8.50;;
69161;SDS011;56269;51.738;21.652;2024-02-28T03:06:32;18.02;;;7.93;;
69161;SDS011;56269;51.738;21.652;2024-02-28T03:08:59;20.48;;;7.57;;
69161;SDS011;56269;51.738;21.652;2024-02-28T03:11:26;19.80;;;8.15;;
69161;SDS011;56269;51.738;21.652;2024-02-28T03:13:52;17.83;;;7.22;;
69161;SDS011;56269;51.738;21.652;2024-02-28T03:16:18;20.10;;;8.57;;
69161;SDS011;56269;51.738;21.652;2024-02-28T03:18:44;19.20;;;8.23;;
69161;SDS011;56269;51.738;21.652;2024-02-28T03:21:10;18.10;;;7.93;;
69161;SDS011;56269;51.738;21.652;2024-02-28T03:23:36;20.38;;;8.10;;
69161;SDS011;56269;51.738;21.652;2024-02-28T03:26:03;16.73;;;7.90;;
69161;SDS011;56269;51.738;21.652;2024-02-28T03:28:30;19.05;;;7.68;;
69161;SDS011;56269;51.738;21.652;2024-02-28T03:30:56;19.52;;;8.27;;
69161;SDS011;56269;51.738;21.652;2024-02-28T03:33:22;17.60;;;7.90;;
69161;SDS011;56269;51.738;21.652;2024-02-28T03:35:49;19.40;;;7.40;;
69161;SDS011;56269;51.738;21.652;2024-02-28T03:38:15;20.37;;;7.10;;
69161;SDS011;56269;51.738;21.652;2024-02-28T03:40:41;16.92;;;7.57;;
69161;SDS011;56269;51.738;21.652;2024-02-28T03:43:08;20.63;;;7.90;;
69161;SDS011;56269;51.738;21.652;2024-02-28T03:45:37;17.98;;;7.40;;
69161;SDS011;56269;51.738;21.652;2024-02-28T03:48:04;16.75;;;7.45;;
69161;SDS011;56269;51.738;21.652;2024-02-28T03:50:30;20.80;;;7.63;;
69161;SDS011;56269;51.738;21.652;2024-02-28T03:52:56;21.23;;;8.38;;
69161;SDS011;56269;51.738;21.652;2024-02-28T03:55:23;21.23;;;8.48;;
69161;SDS011;56269;51.738;21.652;2024-02-28T03:57:49;21.73;;;8.65;;
69161;SDS011;56269;51.738;21.652;2024-02-28T04:00:17;19.30;;;8.30;;
69161;SDS011;56269;51.738;21.652;2024-02-28T04:02:43;19.05;;;7.40;;
69161;SDS011;56269;51.738;21.652;2024-02-28T04:05:10;20.77;;;8.32;;
69161;SDS011;56269;51.738;21.652;2024-02-28T04:07:35;21.23;;;8.55;;
69161;SDS011;56269;51.738;21.652;2024-02-28T04:10:02;23.45;;;9.50;;
69161;SDS011;56269;51.738;21.652;2024-02-28T04:12:30;19.17;;;9.03;;
69161;SDS011;56269;51.738;21.652;2024-02-28T04:14:57;22.38;;;8.68;;
69161;SDS011;56269;51.738;21.652;2024-02-28T04:17:23;18.92;;;8.70;;
69161;SDS011;56269;51.738;21.652;2024-02-28T04:19:49;20.10;;;8.55;;
69161;SDS011;56269;51.738;21.652;2024-02-28T04:22:15;22.47;;;8.43;;
69161;SDS011;56269;51.738;21.652;2024-02-28T04:24:41;20.95;;;8.75;;
69161;SDS011;56269;51.738;21.652;2024-02-28T04:27:07;22.90;;;9.23;;
69161;SDS011;56269;51.738;21.652;2024-02-28T04:29:35;20.20;;;8.93;;
69161;SDS011;56269;51.738;21.652;2024-02-28T04:32:01;19.27;;;8.20;;
69161;SDS011;56269;51.738;21.652;2024-02-28T04:34:28;22.48;;;8.38;;
69161;SDS011;56269;51.738;21.652;2024-02-28T04:36:54;19.73;;;8.65;;
69161;SDS011;56269;51.738;21.652;2024-02-28T04:39:20;21.52;;;9.50;;
69161;SDS011;56269;51.738;21.652;2024-02-28T04:41:46;20.90;;;8.45;;
69161;SDS011;56269;51.738;21.652;2024-02-28T04:44:12;20.83;;;8.90;;
69161;SDS011;56269;51.738;21.652;2024-02-28T04:46:38;17.88;;;8.00;;
69161;SDS011;56269;51.738;21.652;2024-02-28T04:49:04;20.38;;;8.13;;
69161;SDS011;56269;51.738;21.652;2024-02-28T04:51:30;19.13;;;7.82;;
69161;SDS011;56269;51.738;21.652;2024-02-28T04:53:57;18.83;;;7.87;;
69161;SDS011;56269;51.738;21.652;2024-02-28T04:56:23;20.08;;;8.38;;
69161;SDS011;56269;51.738;21.652;2024-02-28T04:58:50;17.95;;;8.30;;
69161;SDS011;56269;51.738;21.652;2024-02-28T05:01:16;19.27;;;8.55;;
69161;SDS011;56269;51.738;21.652;2024-02-28T05:03:42;19.45;;;8.63;;
69161;SDS011;56269;51.738;21.652;2024-02-28T05:06:08;19.10;;;8.37;;
69161;SDS011;56269;51.738;21.652;2024-02-28T05:08:37;19.27;;;8.40;;
69161;SDS011;56269;51.738;21.652;2024-02-28T05:11:03;20.33;;;8.70;;
69161;SDS011;56269;51.738;21.652;2024-02-28T05:13:30;24.17;;;9.07;;
69161;SDS011;56269;51.738;21.652;2024-02-28T05:15:55;18.50;;;7.97;;
69161;SDS011;56269;51.738;21.652;2024-02-28T05:18:22;18.77;;;8.60;;
69161;SDS011;56269;51.738;21.652;2024-02-28T05:20:48;22.58;;;9.00;;
69161;SDS011;56269;51.738;21.652;2024-02-28T05:23:14;22.63;;;10.10;;
69161;SDS011;56269;51.738;21.652;2024-02-28T05:25:40;22.60;;;9.73;;
69161;SDS011;56269;51.738;21.652;2024-02-28T05:28:06;23.37;;;9.57;;
69161;SDS011;56269;51.738;21.652;2024-02-28T05:30:32;21.42;;;9.50;;
69161;SDS011;56269;51.738;21.652;2024-02-28T05:32:59;18.92;;;7.85;;
69161;SDS011;56269;51.738;21.652;2024-02-28T05:35:25;25.23;;;8.82;;
69161;SDS011;56269;51.738;21.652;2024-02-28T05:37:54;21.40;;;8.67;;
69161;SDS011;56269;51.738;21.652;2024-02-28T05:40:20;20.15;;;7.93;;
69161;SDS011;56269;51.738;21.652;2024-02-28T05:42:46;20.52;;;8.80;;
69161;SDS011;56269;51.738;21.652;2024-02-28T05:45:12;24.38;;;9.43;;
69161;SDS011;56269;51.738;21.652;2024-02-28T05:47:39;20.70;;;8.38;;
69161;SDS011;56269;51.738;21.652;2024-02-28T05:50:05;19.60;;;8.60;;
69161;SDS011;56269;51.738;21.652;2024-02-28T05:52:31;20.15;;;8.70;;
69161;SDS011;56269;51.738;21.652;2024-02-28T05:54:57;23.35;;;8.93;;
69161;SDS011;56269;51.738;21.652;2024-02-28T05:57:23;21.63;;;8.82;;
69161;SDS011;56269;51.738;21.652;2024-02-28T05:59:49;18.47;;;9.17;;
69161;SDS011;56269;51.738;21.652;2024-02-28T06:02:16;22.92;;;9.27;;
69161;SDS011;56269;51.738;21.652;2024-02-28T06:04:42;24.27;;;9.90;;
69161;SDS011;56269;51.738;21.652;2024-02-28T06:07:08;23.85;;;9.25;;
69161;SDS011;56269;51.738;21.652;2024-02-28T06:09:34;22.23;;;9.07;;
69161;SDS011;56269;51.738;21.652;2024-02-28T06:12:00;28.00;;;10.65;;
69161;SDS011;56269;51.738;21.652;2024-02-28T06:14:27;20.23;;;9.20;;
69161;SDS011;56269;51.738;21.652;2024-02-28T06:16:53;21.10;;;8.75;;
69161;SDS011;56269;51.738;21.652;2024-02-28T06:19:19;20.57;;;8.03;;
69161;SDS011;56269;51.738;21.652;2024-02-28T06:21:46;24.15;;;9.32;;
69161;SDS011;56269;51.738;21.652;2024-02-28T06:24:12;23.92;;;10.15;;
69161;SDS011;56269;51.738;21.652;2024-02-28T06:26:38;30.95;;;12.90;;
69161;SDS011;56269;51.738;21.652;2024-02-28T06:29:04;28.77;;;10.60;;
69161;SDS011;56269;51.738;21.652;2024-02-28T06:31:32;21.48;;;9.73;;
69161;SDS011;56269;51.738;21.652;2024-02-28T06:33:58;22.35;;;9.18;;
69161;SDS011;56269;51.738;21.652;2024-02-28T06:36:24;24.55;;;9.18;;
69161;SDS011;56269;51.738;21.652;2024-02-28T06:38:50;26.55;;;10.82;;
69161;SDS011;56269;51.738;21.652;2024-02-28T06:41:16;21.57;;;9.20;;
69161;SDS011;56269;51.738;21.652;2024-02-28T06:43:42;28.75;;;10.88;;
69161;SDS011;56269;51.738;21.652;2024-02-28T06:46:09;25.02;;;11.43;;
69161;SDS011;56269;51.738;21.652;2024-02-28T06:48:35;23.63;;;10.93;;
69161;SDS011;56269;51.738;21.652;2024-02-28T06:51:01;23.50;;;10.50;;
69161;SDS011;56269;51.738;21.652;2024-02-28T06:53:27;23.05;;;10.82;;
69161;SDS011;56269;51.738;21.652;2024-02-28T06:55:53;22.23;;;10.02;;
69161;SDS011;56269;51.738;21.652;2024-02-28T06:58:19;21.05;;;11.40;;
69161;SDS011;56269;51.738;21.652;2024-02-28T07:00:46;20.17;;;8.90;;
69161;SDS011;56269;51.738;21.652;2024-02-28T07:03:13;21.23;;;9.40;;
69161;SDS011;56269;51.738;21.652;2024-02-28T07:05:39;23.83;;;9.98;;
69161;SDS011;56269;51.738;21.652;2024-02-28T07:08:06;20.90;;;9.77;;
69161;SDS011;56269;51.738;21.652;2024-02-28T07:10:32;19.55;;;9.10;;
69161;SDS011;56269;51.738;21.652;2024-02-28T07:12:58;20.43;;;8.93;;
69161;SDS011;56269;51.738;21.652;2024-02-28T07:15:24;22.13;;;9.00;;
69161;SDS011;56269;51.738;21.652;2024-02-28T07:17:50;22.25;;;9.35;;
69161;SDS011;56269;51.738;21.652;2024-02-28T07:20:16;22.38;;;8.48;;
69161;SDS011;56269;51.738;21.652;2024-02-28T07:22:43;22.77;;;8.90;;
69161;SDS011;56269;51.738;21.652;2024-02-28T07:25:09;19.43;;;8.20;;
69161;SDS011;56269;51.738;21.652;2024-02-28T07:27:35;22.33;;;9.07;;
69161;SDS011;56269;51.738;21.652;2024-02-28T07:30:02;20.70;;;9.07;;
69161;SDS011;56269;51.738;21.652;2024-02-28T07:32:32;21.98;;;8.60;;
69161;SDS011;56269;51.738;21.652;2024-02-28T07:35:01;21.85;;;8.68;;
69161;SDS011;56269;51.738;21.652;2024-02-28T07:37:27;19.40;;;8.73;;
69161;SDS011;56269;51.738;21.652;2024-02-28T07:39:53;20.25;;;8.88;;
69161;SDS011;56269;51.738;21.652;2024-02-28T07:42:20;22.88;;;9.23;;
69161;SDS011;56269;51.738;21.652;2024-02-28T07:44:46;23.58;;;9.93;;
69161;SDS011;56269;51.738;21.652;2024-02-28T07:47:13;24.45;;;9.20;;
69161;SDS011;56269;51.738;21.652;2024-02-28T07:49:40;22.67;;;9.00;;
69161;SDS011;56269;51.738;21.652;2024-02-28T07:52:07;19.15;;;8.73;;
69161;SDS011;56269;51.738;21.652;2024-02-28T07:54:33;20.60;;;8.63;;
69161;SDS011;56269;51.738;21.652;2024-02-28T07:56:59;19.92;;;8.52;;
69161;SDS011;56269;51.738;21.652;2024-02-28T07:59:26;20.50;;;9.25;;
69161;SDS011;56269;51.738;21.652;2024-02-28T08:01:52;21.57;;;9.43;;
69161;SDS011;56269;51.738;21.652;2024-02-28T08:04:18;21.10;;;9.32;;
69161;SDS011;56269;51.738;21.652;2024-02-28T08:06:44;21.02;;;9.23;;
69161;SDS011;56269;51.738;21.652;2024-02-28T08:09:11;20.42;;;9.07;;
69161;SDS011;56269;51.738;21.652;2024-02-28T08:11:37;21.30;;;9.15;;
69161;SDS011;56269;51.738;21.652;2024-02-28T08:14:04;20.17;;;8.73;;
69161;SDS011;56269;51.738;21.652;2024-02-28T08:16:30;21.35;;;9.35;;
69161;SDS011;56269;51.738;21.652;2024-02-28T08:18:56;20.67;;;9.13;;
69161;SDS011;56269;51.738;21.652;2024-02-28T08:21:22;19.50;;;8.82;;
69161;SDS011;56269;51.738;21.652;2024-02-28T08:23:48;20.87;;;9.33;;
69161;SDS011;56269;51.738;21.652;2024-02-28T08:26:14;22.70;;;9.30;;
69161;SDS011;56269;51.738;21.652;2024-02-28T08:28:41;20.17;;;9.43;;
69161;SDS011;56269;51.738;21.652;2024-02-28T08:31:07;24.25;;;10.05;;
69161;SDS011;56269;51.738;21.652;2024-02-28T08:33:33;27.03;;;11.33;;
69161;SDS011;56269;51.738;21.652;2024-02-28T08:35:59;23.80;;;10.52;;
69161;SDS011;56269;51.738;21.652;2024-02-28T08:38:25;20.02;;;9.15;;
69161;SDS011;56269;51.738;21.652;2024-02-28T08:40:51;23.35;;;9.90;;
69161;SDS011;56269;51.738;21.652;2024-02-28T08:43:17;20.80;;;9.23;;
69161;SDS011;56269;51.738;21.652;2024-02-28T08:45:43;22.20;;;9.10;;
69161;SDS011;56269;51.738;21.652;2024-02-28T08:48:10;23.98;;;9.73;;
69161;SDS011;56269;51.738;21.652;2024-02-28T08:50:36;21.73;;;9.80;;
69161;SDS011;56269;51.738;21.652;2024-02-28T08:53:02;24.73;;;9.95;;
69161;SDS011;56269;51.738;21.652;2024-02-28T08:55:28;20.97;;;9.10;;
69161;SDS011;56269;51.738;21.652;2024-02-28T08:57:55;21.15;;;9.07;;
69161;SDS011;56269;51.738;21.652;2024-02-28T09:00:21;25.20;;;9.68;;
69161;SDS011;56269;51.738;21.652;2024-02-28T09:02:49;29.70;;;10.90;;
69161;SDS011;56269;51.738;21.652;2024-02-28T09:05:14;24.23;;;9.63;;
69161;SDS011;56269;51.738;21.652;2024-02-28T09:07:41;25.27;;;9.70;;
69161;SDS011;56269;51.738;21.652;2024-02-28T09:10:07;22.20;;;8.85;;
69161;SDS011;56269;51.738;21.652;2024-02-28T09:12:33;21.20;;;9.27;;
69161;SDS011;56269;51.738;21.652;2024-02-28T09:15:00;23.10;;;9.95;;
69161;SDS011;56269;51.738;21.652;2024-02-28T09:17:26;24.50;;;9.70;;
69161;SDS011;56269;51.738;21.652;2024-02-28T09:19:52;23.70;;;9.25;;
69161;SDS011;56269;51.738;21.652;2024-02-28T09:22:20;24.08;;;10.43;;
69161;SDS011;56269;51.738;21.652;2024-02-28T09:24:46;22.63;;;9.63;;
69161;SDS011;56269;51.738;21.652;2024-02-28T09:27:13;22.98;;;9.63;;
69161;SDS011;56269;51.738;21.652;2024-02-28T09:29:39;19.33;;;8.87;;
69161;SDS011;56269;51.738;21.652;2024-02-28T09:32:06;21.35;;;9.40;;
69161;SDS011;56269;51.738;21.652;2024-02-28T09:34:32;22.98;;;10.13;;
69161;SDS011;56269;51.738;21.652;2024-02-28T09:36:58;23.13;;;9.88;;
69161;SDS011;56269;51.738;21.652;2024-02-28T09:39:24;24.58;;;10.70;;
69161;SDS011;56269;51.738;21.652;2024-02-28T09:41:51;23.20;;;10.57;;
69161;SDS011;56269;51.738;21.652;2024-02-28T09:44:18;23.70;;;9.85;;
69161;SDS011;56269;51.738;21.652;2024-02-28T09:46:46;20.48;;;10.18;;
69161;SDS011;56269;51.738;21.652;2024-02-28T09:49:16;21.77;;;9.68;;
69161;SDS011;56269;51.738;21.652;2024-02-28T09:51:42;21.92;;;9.57;;
69161;SDS011;56269;51.738;21.652;2024-02-28T09:54:09;24.70;;;10.17;;
69161;SDS011;56269;51.738;21.652;2024-02-28T09:56:36;22.45;;;9.93;;
69161;SDS011;56269;51.738;21.652;2024-02-28T09:59:02;24.15;;;9.80;;
69161;SDS011;56269;51.738;21.652;2024-02-28T10:01:28;22.70;;;9.07;;
69161;SDS011;56269;51.738;21.652;2024-02-28T10:03:55;24.02;;;9.95;;
69161;SDS011;56269;51.738;21.652;2024-02-28T10:06:23;21.33;;;10.50;;
69161;SDS011;56269;51.738;21.652;2024-02-28T10:08:49;21.50;;;9.77;;
69161;SDS011;56269;51.738;21.652;2024-02-28T10:13:47;22.98;;;9.95;;
69161;SDS011;56269;51.738;21.652;2024-02-28T10:16:13;20.10;;;8.52;;
69161;SDS011;56269;51.738;21.652;2024-02-28T10:18:42;18.67;;;9.17;;
69161;SDS011;56269;51.738;21.652;2024-02-28T10:21:10;20.60;;;9.05;;
69161;SDS011;56269;51.738;21.652;2024-02-28T10:23:37;19.00;;;9.00;;
69161;SDS011;56269;51.738;21.652;2024-02-28T10:26:04;20.38;;;10.15;;
69161;SDS011;56269;51.738;21.652;2024-02-28T10:28:30;19.77;;;8.70;;
69161;SDS011;56269;51.738;21.652;2024-02-28T10:30:57;21.60;;;9.37;;
69161;SDS011;56269;51.738;21.652;2024-02-28T10:33:25;20.15;;;8.15;;
69161;SDS011;56269;51.738;21.652;2024-02-28T10:35:54;19.05;;;8.43;;
69161;SDS011;56269;51.738;21.652;2024-02-28T10:38:21;17.80;;;8.23;;
69161;SDS011;56269;51.738;21.652;2024-02-28T10:40:48;18.53;;;7.90;;
69161;SDS011;56269;51.738;21.652;2024-02-28T10:43:16;16.30;;;7.50;;
69161;SDS011;56269;51.738;21.652;2024-02-28T10:45:43;14.80;;;5.97;;
69161;SDS011;56269;51.738;21.652;2024-02-28T10:48:10;12.27;;;5.38;;
69161;SDS011;56269;51.738;21.652;2024-02-28T10:50:39;13.88;;;5.53;;
69161;SDS011;56269;51.738;21.652;2024-02-28T10:53:06;11.50;;;5.13;;
69161;SDS011;56269;51.738;21.652;2024-02-28T10:55:40;17.05;;;6.20;;
69161;SDS011;56269;51.738;21.652;2024-02-28T10:58:07;14.40;;;6.53;;
69161;SDS011;56269;51.738;21.652;2024-02-28T11:00:35;15.30;;;6.55;;
69161;SDS011;56269;51.738;21.652;2024-02-28T11:03:07;10.32;;;3.97;;
69161;SDS011;56269;51.738;21.652;2024-02-28T11:05:36;13.53;;;4.83;;
69161;SDS011;56269;51.738;21.652;2024-02-28T11:08:11;13.15;;;5.32;;
69161;SDS011;56269;51.738;21.652;2024-02-28T11:10:46;11.85;;;5.22;;
69161;SDS011;56269;51.738;21.652;2024-02-28T11:13:22;13.95;;;5.63;;
69161;SDS011;56269;51.738;21.652;2024-02-28T11:15:52;14.48;;;6.03;;
69161;SDS011;56269;51.738;21.652;2024-02-28T11:18:18;11.87;;;5.27;;
69161;SDS011;56269;51.738;21.652;2024-02-28T11:20:45;13.05;;;5.80;;
69161;SDS011;56269;51.738;21.652;2024-02-28T11:23:14;14.23;;;5.68;;
69161;SDS011;56269;51.738;21.652;2024-02-28T11:25:43;14.73;;;5.60;;
69161;SDS011;56269;51.738;21.652;2024-02-28T11:28:09;11.60;;;4.65;;
69161;SDS011;56269;51.738;21.652;2024-02-28T11:30:36;12.13;;;4.70;;
69161;SDS011;56269;51.738;21.652;2024-02-28T11:33:02;13.52;;;5.60;;
69161;SDS011;56269;51.738;21.652;2024-02-28T11:35:28;13.75;;;5.68;;
69161;SDS011;56269;51.738;21.652;2024-02-28T11:37:54;14.10;;;5.93;;
69161;SDS011;56269;51.738;21.652;2024-02-28T11:40:24;14.25;;;6.47;;
69161;SDS011;56269;51.738;21.652;2024-02-28T11:42:56;14.63;;;6.60;;
69161;SDS011;56269;51.738;21.652;2024-02-28T11:45:23;15.18;;;5.95;;
69161;SDS011;56269;51.738;21.652;2024-02-28T11:47:50;12.45;;;5.65;;
69161;SDS011;56269;51.738;21.652;2024-02-28T11:50:17;15.80;;;6.40;;
69161;SDS011;56269;51.738;21.652;2024-02-28T11:52:45;14.80;;;5.88;;
69161;SDS011;56269;51.738;21.652;2024-02-28T11:55:11;12.50;;;5.47;;
69161;SDS011;56269;51.738;21.652;2024-02-28T11:57:37;15.95;;;7.47;;
69161;SDS011;56269;51.738;21.652;2024-02-28T12:00:08;16.13;;;6.70;;
69161;SDS011;56269;51.738;21.652;2024-02-28T12:02:40;17.00;;;7.25;;
69161;SDS011;56269;51.738;21.652;2024-02-28T12:05:07;14.77;;;7.10;;
69161;SDS011;56269;51.738;21.652;2024-02-28T12:07:34;14.40;;;6.70;;
69161;SDS011;56269;51.738;21.652;2024-02-28T12:10:02;16.17;;;6.85;;
69161;SDS011;56269;51.738;21.652;2024-02-28T12:12:28;13.80;;;6.60;;
69161;SDS011;56269;51.738;21.652;2024-02-28T12:14:58;15.40;;;6.05;;
69161;SDS011;56269;51.738;21.652;2024-02-28T12:17:31;13.65;;;6.30;;
69161;SDS011;56269;51.738;21.652;2024-02-28T12:20:01;15.07;;;6.03;;
69161;SDS011;56269;51.738;21.652;2024-02-28T12:22:27;12.68;;;5.60;;
69161;SDS011;56269;51.738;21.652;2024-02-28T12:24:54;12.73;;;5.53;;
69161;SDS011;56269;51.738;21.652;2024-02-28T12:27:20;12.25;;;4.80;;
69161;SDS011;56269;51.738;21.652;2024-02-28T12:29:46;13.95;;;5.18;;
69161;SDS011;56269;51.738;21.652;2024-02-28T12:32:12;12.13;;;5.30;;
69161;SDS011;56269;51.738;21.652;2024-02-28T12:34:38;11.43;;;4.70;;
69161;SDS011;56269;51.738;21.652;2024-02-28T12:37:04;12.65;;;4.63;;
69161;SDS011;56269;51.738;21.652;2024-02-28T12:39:31;12.18;;;5.03;;
69161;SDS011;56269;51.738;21.652;2024-02-28T12:41:59;11.20;;;4.80;;
69161;SDS011;56269;51.738;21.652;2024-02-28T12:44:26;11.88;;;4.32;;
69161;SDS011;56269;51.738;21.652;2024-02-28T12:46:52;8.75;;;3.92;;
69161;SDS011;56269;51.738;21.652;2024-02-28T12:49:19;12.75;;;4.55;;
69161;SDS011;56269;51.738;21.652;2024-02-28T12:51:45;10.45;;;3.97;;
69161;SDS011;56269;51.738;21.652;2024-02-28T12:54:12;10.40;;;4.40;;
69161;SDS011;56269;51.738;21.652;2024-02-28T12:56:41;10.23;;;4.35;;
69161;SDS011;56269;51.738;21.652;2024-02-28T12:59:08;10.20;;;4.22;;
69161;SDS011;56269;51.738;21.652;2024-02-28T13:01:35;9.18;;;3.72;;
69161;SDS011;56269;51.738;21.652;2024-02-28T13:04:02;10.65;;;5.20;;
69161;SDS011;56269;51.738;21.652;2024-02-28T13:06:28;9.23;;;4.10;;
69161;SDS011;56269;51.738;21.652;2024-02-28T13:08:54;10.85;;;4.50;;
69161;SDS011;56269;51.738;21.652;2024-02-28T13:11:21;11.68;;;4.78;;
69161;SDS011;56269;51.738;21.652;2024-02-28T13:13:49;11.82;;;4.82;;
69161;SDS011;56269;51.738;21.652;2024-02-28T13:16:16;10.77;;;4.85;;
69161;SDS011;56269;51.738;21.652;2024-02-28T13:18:43;12.57;;;4.33;;
69161;SDS011;56269;51.738;21.652;2024-02-28T13:21:10;9.02;;;3.88;;
69161;SDS011;56269;51.738;21.652;2024-02-28T13:23:37;10.15;;;3.55;;
69161;SDS011;56269;51.738;21.652;2024-02-28T13:26:07;7.30;;;3.25;;
69161;SDS011;56269;51.738;21.652;2024-02-28T13:28:34;10.52;;;4.13;;
69161;SDS011;56269;51.738;21.652;2024-02-28T13:31:02;12.20;;;4.23;;
69161;SDS011;56269;51.738;21.652;2024-02-28T13:33:30;9.68;;;4.22;;
69161;SDS011;56269;51.738;21.652;2024-02-28T13:36:03;9.55;;;3.85;;
69161;SDS011;56269;51.738;21.652;2024-02-28T13:38:31;10.27;;;4.07;;
69161;SDS011;56269;51.738;21.652;2024-02-28T13:40:58;7.55;;;2.88;;
69161;SDS011;56269;51.738;21.652;2024-02-28T13:43:25;11.93;;;4.63;;
69161;SDS011;56269;51.738;21.652;2024-02-28T13:45:53;10.60;;;4.50;;
69161;SDS011;56269;51.738;21.652;2024-02-28T13:48:26;13.15;;;4.78;;
69161;SDS011;56269;51.738;21.652;2024-02-28T13:50:59;11.38;;;4.45;;
69161;SDS011;56269;51.738;21.652;2024-02-28T13:53:26;13.88;;;5.20;;
69161;SDS011;56269;51.738;21.652;2024-02-28T13:55:53;12.50;;;5.50;;
69161;SDS011;56269;51.738;21.652;2024-02-28T13:58:21;15.18;;;5.68;;
69161;SDS011;56269;51.738;21.652;2024-02-28T14:00:48;14.63;;;6.18;;
69161;SDS011;56269;51.738;21.652;2024-02-28T14:03:18;15.18;;;5.50;;
69161;SDS011;56269;51.738;21.652;2024-02-28T14:05:45;15.77;;;5.93;;
69161;SDS011;56269;51.738;21.652;2024-02-28T14:08:12;13.10;;;6.03;;
69161;SDS011;56269;51.738;21.652;2024-02-28T14:10:38;14.10;;;6.45;;
69161;SDS011;56269;51.738;21.652;2024-02-28T14:13:06;13.38;;;6.07;;
69161;SDS011;56269;51.738;21.652;2024-02-28T14:15:34;14.52;;;6.35;;
69161;SDS011;56269;51.738;21.652;2024-02-28T14:18:06;13.85;;;5.47;;
69161;SDS011;56269;51.738;21.652;2024-02-28T14:20:34;12.60;;;5.63;;